Cosmopolis, Washington
Current Conditions -  °F | °C
As of 5:53 AM on Friday 31 Oct 2014 (Local Time) from KHQM Reporting Station
Light Rain Light Rain  
Wind Chill: 51°   Ceiling: 7000
Heat Index: 51°   Visibility: 7mi
Dew Point: 50°   Wind: 3mph
Humidity: 96%   Direction: 280°W
Pressure: 29.73"   Gusts: NA
Location:  46.96°N, 123.77°W
Report Text: KHQM 311253Z AUTO 28003KT 7SM -RA OVC070 11/10 A2973 RMK AO2 SLP070 P0001 T01060100
Loading
Personal Weather Stations






























Interactive Weather Map
Tropical Storm Tracking
New forecast layout! Learn more

10-Day Weather Forecast

Advertisements
Track Severe Weather on mobile